sensor_id;sensor_type;location;lat;lon;timestamp;temperature;humidity
16663;DHT22;8445;51.270;9.434;2023-12-20T00:01:50;5.10;85.00
16663;DHT22;8445;51.270;9.434;2023-12-20T00:04:16;5.20;85.20
16663;DHT22;8445;51.270;9.434;2023-12-20T00:06:42;5.20;85.10
16663;DHT22;8445;51.270;9.434;2023-12-20T00:09:08;5.20;85.20
16663;DHT22;8445;51.270;9.434;2023-12-20T00:11:34;5.20;85.20
16663;DHT22;8445;51.270;9.434;2023-12-20T00:14:00;5.20;85.10
16663;DHT22;8445;51.270;9.434;2023-12-20T00:16:25;5.30;85.00
16663;DHT22;8445;51.270;9.434;2023-12-20T00:18:52;5.30;85.00
16663;DHT22;8445;51.270;9.434;2023-12-20T00:21:18;5.30;85.10
16663;DHT22;8445;51.270;9.434;2023-12-20T00:23:44;5.30;85.20
16663;DHT22;8445;51.270;9.434;2023-12-20T00:26:09;5.30;85.30
16663;DHT22;8445;51.270;9.434;2023-12-20T00:28:35;5.30;85.30
16663;DHT22;8445;51.270;9.434;2023-12-20T00:31:01;5.30;85.30
16663;DHT22;8445;51.270;9.434;2023-12-20T00:33:27;5.30;85.30
16663;DHT22;8445;51.270;9.434;2023-12-20T00:35:53;5.30;85.30
16663;DHT22;8445;51.270;9.434;2023-12-20T00:38:19;5.30;85.30
16663;DHT22;8445;51.270;9.434;2023-12-20T00:40:45;5.30;85.40
16663;DHT22;8445;51.270;9.434;2023-12-20T00:43:10;5.30;85.40
16663;DHT22;8445;51.270;9.434;2023-12-20T00:45:37;5.30;85.40
16663;DHT22;8445;51.270;9.434;2023-12-20T00:48:03;5.30;85.50
16663;DHT22;8445;51.270;9.434;2023-12-20T00:50:29;5.30;85.50
16663;DHT22;8445;51.270;9.434;2023-12-20T00:52:55;5.30;85.50
16663;DHT22;8445;51.270;9.434;2023-12-20T00:55:21;5.40;85.50
16663;DHT22;8445;51.270;9.434;2023-12-20T00:57:47;5.40;85.40
16663;DHT22;8445;51.270;9.434;2023-12-20T01:00:13;5.40;85.40
16663;DHT22;8445;51.270;9.434;2023-12-20T01:02:39;5.40;85.40
16663;DHT22;8445;51.270;9.434;2023-12-20T01:05:06;5.40;85.40
16663;DHT22;8445;51.270;9.434;2023-12-20T01:07:33;5.30;85.40
16663;DHT22;8445;51.270;9.434;2023-12-20T01:09:59;5.40;85.30
16663;DHT22;8445;51.270;9.434;2023-12-20T01:12:25;5.40;85.20
16663;DHT22;8445;51.270;9.434;2023-12-20T01:14:51;5.40;85.20
16663;DHT22;8445;51.270;9.434;2023-12-20T01:17:16;5.40;85.40
16663;DHT22;8445;51.270;9.434;2023-12-20T01:19:49;5.40;85.30
16663;DHT22;8445;51.270;9.434;2023-12-20T01:22:17;5.40;85.30
16663;DHT22;8445;51.270;9.434;2023-12-20T01:24:42;5.40;85.30
16663;DHT22;8445;51.270;9.434;2023-12-20T01:27:08;5.50;85.30
16663;DHT22;8445;51.270;9.434;2023-12-20T01:29:34;5.50;85.40
16663;DHT22;8445;51.270;9.434;2023-12-20T01:32:00;5.50;85.30
16663;DHT22;8445;51.270;9.434;2023-12-20T01:34:26;5.50;85.40
16663;DHT22;8445;51.270;9.434;2023-12-20T01:36:52;5.50;85.40
16663;DHT22;8445;51.270;9.434;2023-12-20T01:39:18;5.50;85.40
16663;DHT22;8445;51.270;9.434;2023-12-20T01:41:43;5.50;85.40
16663;DHT22;8445;51.270;9.434;2023-12-20T01:44:10;5.50;85.40
16663;DHT22;8445;51.270;9.434;2023-12-20T01:46:36;5.50;85.50
16663;DHT22;8445;51.270;9.434;2023-12-20T01:49:02;5.50;85.50
16663;DHT22;8445;51.270;9.434;2023-12-20T01:51:28;5.50;85.60
16663;DHT22;8445;51.270;9.434;2023-12-20T01:53:57;5.50;85.70
16663;DHT22;8445;51.270;9.434;2023-12-20T01:56:25;5.50;85.70
16663;DHT22;8445;51.270;9.434;2023-12-20T01:58:53;5.50;85.70
16663;DHT22;8445;51.270;9.434;2023-12-20T02:01:21;5.50;85.70
16663;DHT22;8445;51.270;9.434;2023-12-20T02:03:47;5.50;85.60
16663;DHT22;8445;51.270;9.434;2023-12-20T02:06:13;5.60;85.50
16663;DHT22;8445;51.270;9.434;2023-12-20T02:08:41;5.60;85.50
16663;DHT22;8445;51.270;9.434;2023-12-20T02:11:07;5.60;85.40
16663;DHT22;8445;51.270;9.434;2023-12-20T02:13:33;5.60;85.30
16663;DHT22;8445;51.270;9.434;2023-12-20T02:16:00;5.60;85.30
16663;DHT22;8445;51.270;9.434;2023-12-20T02:18:26;5.70;85.30
16663;DHT22;8445;51.270;9.434;2023-12-20T02:20:53;5.70;85.30
16663;DHT22;8445;51.270;9.434;2023-12-20T02:23:20;5.70;85.30
16663;DHT22;8445;51.270;9.434;2023-12-20T02:25:46;5.70;85.30
16663;DHT22;8445;51.270;9.434;2023-12-20T02:28:13;5.70;85.40
16663;DHT22;8445;51.270;9.434;2023-12-20T02:30:40;5.70;85.40
16663;DHT22;8445;51.270;9.434;2023-12-20T02:33:08;5.70;84.70
16663;DHT22;8445;51.270;9.434;2023-12-20T02:35:38;5.90;84.20
16663;DHT22;8445;51.270;9.434;2023-12-20T02:38:04;5.90;84.10
16663;DHT22;8445;51.270;9.434;2023-12-20T02:40:29;5.90;84.20
16663;DHT22;8445;51.270;9.434;2023-12-20T02:42:55;5.80;84.40
16663;DHT22;8445;51.270;9.434;2023-12-20T02:45:21;5.90;84.40
16663;DHT22;8445;51.270;9.434;2023-12-20T02:47:47;5.80;84.50
16663;DHT22;8445;51.270;9.434;2023-12-20T02:50:14;5.80;84.60
16663;DHT22;8445;51.270;9.434;2023-12-20T02:52:44;5.80;84.70
16663;DHT22;8445;51.270;9.434;2023-12-20T02:55:14;5.80;84.80
16663;DHT22;8445;51.270;9.434;2023-12-20T02:57:42;5.80;84.80
16663;DHT22;8445;51.270;9.434;2023-12-20T03:00:10;5.90;84.90
16663;DHT22;8445;51.270;9.434;2023-12-20T03:02:39;5.90;85.00
16663;DHT22;8445;51.270;9.434;2023-12-20T03:05:10;5.90;85.10
16663;DHT22;8445;51.270;9.434;2023-12-20T03:07:42;5.80;85.20
16663;DHT22;8445;51.270;9.434;2023-12-20T03:10:12;5.90;85.20
16663;DHT22;8445;51.270;9.434;2023-12-20T03:12:39;5.90;85.10
16663;DHT22;8445;51.270;9.434;2023-12-20T03:15:07;5.90;85.20
16663;DHT22;8445;51.270;9.434;2023-12-20T03:17:34;5.90;85.10
16663;DHT22;8445;51.270;9.434;2023-12-20T03:20:05;5.90;85.20
16663;DHT22;8445;51.270;9.434;2023-12-20T03:22:34;6.00;85.10
16663;DHT22;8445;51.270;9.434;2023-12-20T03:25:01;6.00;85.10
16663;DHT22;8445;51.270;9.434;2023-12-20T03:27:28;6.00;85.10
16663;DHT22;8445;51.270;9.434;2023-12-20T03:29:55;6.00;85.20
16663;DHT22;8445;51.270;9.434;2023-12-20T03:32:25;6.00;85.20
16663;DHT22;8445;51.270;9.434;2023-12-20T03:34:52;6.00;85.20
16663;DHT22;8445;51.270;9.434;2023-12-20T03:37:19;6.00;85.20
16663;DHT22;8445;51.270;9.434;2023-12-20T03:39:48;6.00;85.10
16663;DHT22;8445;51.270;9.434;2023-12-20T03:42:15;6.10;85.10
16663;DHT22;8445;51.270;9.434;2023-12-20T03:44:42;6.10;85.10
16663;DHT22;8445;51.270;9.434;2023-12-20T03:47:12;6.10;85.00
16663;DHT22;8445;51.270;9.434;2023-12-20T03:49:39;6.10;85.00
16663;DHT22;8445;51.270;9.434;2023-12-20T03:52:07;6.00;85.00
16663;DHT22;8445;51.270;9.434;2023-12-20T03:54:38;6.00;84.90
16663;DHT22;8445;51.270;9.434;2023-12-20T03:57:06;6.00;84.80
16663;DHT22;8445;51.270;9.434;2023-12-20T03:59:37;6.00;84.60
16663;DHT22;8445;51.270;9.434;2023-12-20T04:02:05;5.90;84.40
16663;DHT22;8445;51.270;9.434;2023-12-20T04:04:33;5.90;84.40
16663;DHT22;8445;51.270;9.434;2023-12-20T04:07:00;5.90;84.30
16663;DHT22;8445;51.270;9.434;2023-12-20T04:09:27;5.80;84.10
16663;DHT22;8445;51.270;9.434;2023-12-20T04:11:54;5.80;84.00
16663;DHT22;8445;51.270;9.434;2023-12-20T04:14:22;5.80;84.00
16663;DHT22;8445;51.270;9.434;2023-12-20T04:16:48;5.80;84.10
16663;DHT22;8445;51.270;9.434;2023-12-20T04:19:16;5.80;84.10
16663;DHT22;8445;51.270;9.434;2023-12-20T04:21:43;5.80;83.70
16663;DHT22;8445;51.270;9.434;2023-12-20T04:24:10;5.80;83.40
16663;DHT22;8445;51.270;9.434;2023-12-20T04:26:37;5.70;83.40
16663;DHT22;8445;51.270;9.434;2023-12-20T04:29:06;5.70;83.30
16663;DHT22;8445;51.270;9.434;2023-12-20T04:31:32;5.60;83.40
16663;DHT22;8445;51.270;9.434;2023-12-20T04:33:59;5.60;83.40
16663;DHT22;8445;51.270;9.434;2023-12-20T04:36:25;5.60;83.00
16663;DHT22;8445;51.270;9.434;2023-12-20T04:38:53;5.60;82.80
16663;DHT22;8445;51.270;9.434;2023-12-20T04:41:19;5.60;82.70
16663;DHT22;8445;51.270;9.434;2023-12-20T04:43:45;5.50;82.20
16663;DHT22;8445;51.270;9.434;2023-12-20T04:46:11;5.50;82.00
16663;DHT22;8445;51.270;9.434;2023-12-20T04:48:37;5.50;82.10
16663;DHT22;8445;51.270;9.434;2023-12-20T04:51:03;5.40;82.00
16663;DHT22;8445;51.270;9.434;2023-12-20T04:53:29;5.40;81.90
16663;DHT22;8445;51.270;9.434;2023-12-20T04:55:55;5.30;81.90
16663;DHT22;8445;51.270;9.434;2023-12-20T04:58:20;5.30;81.90
16663;DHT22;8445;51.270;9.434;2023-12-20T05:00:46;5.30;81.90
16663;DHT22;8445;51.270;9.434;2023-12-20T05:03:12;5.30;82.00
16663;DHT22;8445;51.270;9.434;2023-12-20T05:05:38;5.30;81.90
16663;DHT22;8445;51.270;9.434;2023-12-20T05:08:04;5.20;81.90
16663;DHT22;8445;51.270;9.434;2023-12-20T05:10:30;5.30;81.60
16663;DHT22;8445;51.270;9.434;2023-12-20T05:12:56;5.20;81.30
16663;DHT22;8445;51.270;9.434;2023-12-20T05:15:22;5.30;81.10
16663;DHT22;8445;51.270;9.434;2023-12-20T05:17:48;5.30;80.80
16663;DHT22;8445;51.270;9.434;2023-12-20T05:20:14;5.30;80.50
16663;DHT22;8445;51.270;9.434;2023-12-20T05:22:41;5.20;80.70
16663;DHT22;8445;51.270;9.434;2023-12-20T05:25:07;5.10;80.80
16663;DHT22;8445;51.270;9.434;2023-12-20T05:27:33;5.10;81.00
16663;DHT22;8445;51.270;9.434;2023-12-20T05:29:59;5.10;80.70
16663;DHT22;8445;51.270;9.434;2023-12-20T05:32:24;5.00;80.70
16663;DHT22;8445;51.270;9.434;2023-12-20T05:34:50;5.00;80.70
16663;DHT22;8445;51.270;9.434;2023-12-20T05:37:16;4.90;80.80
16663;DHT22;8445;51.270;9.434;2023-12-20T05:39:42;4.90;80.80
16663;DHT22;8445;51.270;9.434;2023-12-20T05:42:08;4.80;80.90
16663;DHT22;8445;51.270;9.434;2023-12-20T05:44:34;4.70;81.00
16663;DHT22;8445;51.270;9.434;2023-12-20T05:46:59;4.70;81.20
16663;DHT22;8445;51.270;9.434;2023-12-20T05:49:25;4.70;81.20
16663;DHT22;8445;51.270;9.434;2023-12-20T05:51:51;4.70;81.30
16663;DHT22;8445;51.270;9.434;2023-12-20T05:54:17;4.70;81.50
16663;DHT22;8445;51.270;9.434;2023-12-20T05:56:43;4.70;81.60
16663;DHT22;8445;51.270;9.434;2023-12-20T05:59:09;4.70;81.60
16663;DHT22;8445;51.270;9.434;2023-12-20T06:01:35;4.70;81.50
16663;DHT22;8445;51.270;9.434;2023-12-20T06:04:02;4.70;81.40
16663;DHT22;8445;51.270;9.434;2023-12-20T06:06:28;4.70;81.20
16663;DHT22;8445;51.270;9.434;2023-12-20T06:08:54;4.70;81.10
16663;DHT22;8445;51.270;9.434;2023-12-20T06:11:23;4.60;81.10
16663;DHT22;8445;51.270;9.434;2023-12-20T06:13:49;4.60;81.10
16663;DHT22;8445;51.270;9.434;2023-12-20T06:16:18;4.50;81.20
16663;DHT22;8445;51.270;9.434;2023-12-20T06:18:44;4.50;81.30
16663;DHT22;8445;51.270;9.434;2023-12-20T06:21:10;4.60;81.40
16663;DHT22;8445;51.270;9.434;2023-12-20T06:23:38;4.60;81.50
16663;DHT22;8445;51.270;9.434;2023-12-20T06:26:04;4.60;81.50
16663;DHT22;8445;51.270;9.434;2023-12-20T06:28:30;4.70;81.60
16663;DHT22;8445;51.270;9.434;2023-12-20T06:30:56;4.70;81.60
16663;DHT22;8445;51.270;9.434;2023-12-20T06:33:23;4.70;81.60
16663;DHT22;8445;51.270;9.434;2023-12-20T06:35:49;4.70;81.50
16663;DHT22;8445;51.270;9.434;2023-12-20T06:38:17;4.80;81.50
16663;DHT22;8445;51.270;9.434;2023-12-20T06:40:43;4.90;81.50
16663;DHT22;8445;51.270;9.434;2023-12-20T06:43:09;4.90;81.50
16663;DHT22;8445;51.270;9.434;2023-12-20T06:45:35;5.00;81.30
16663;DHT22;8445;51.270;9.434;2023-12-20T06:48:01;5.00;81.30
16663;DHT22;8445;51.270;9.434;2023-12-20T06:50:27;5.00;81.20
16663;DHT22;8445;51.270;9.434;2023-12-20T06:52:53;5.00;81.20
16663;DHT22;8445;51.270;9.434;2023-12-20T06:55:19;5.10;81.00
16663;DHT22;8445;51.270;9.434;2023-12-20T06:57:46;5.10;81.00
16663;DHT22;8445;51.270;9.434;2023-12-20T07:00:12;5.10;80.90
16663;DHT22;8445;51.270;9.434;2023-12-20T07:02:39;5.20;80.80
16663;DHT22;8445;51.270;9.434;2023-12-20T07:05:05;5.20;80.70
16663;DHT22;8445;51.270;9.434;2023-12-20T07:07:32;5.20;80.70
16663;DHT22;8445;51.270;9.434;2023-12-20T07:09:58;5.20;80.70
16663;DHT22;8445;51.270;9.434;2023-12-20T07:12:24;5.30;80.60
16663;DHT22;8445;51.270;9.434;2023-12-20T07:14:50;5.20;80.60
16663;DHT22;8445;51.270;9.434;2023-12-20T07:17:16;5.30;80.50
16663;DHT22;8445;51.270;9.434;2023-12-20T07:19:42;5.30;80.50
16663;DHT22;8445;51.270;9.434;2023-12-20T07:22:08;5.30;80.50
16663;DHT22;8445;51.270;9.434;2023-12-20T07:24:34;5.20;80.50
16663;DHT22;8445;51.270;9.434;2023-12-20T07:27:00;5.20;80.50
16663;DHT22;8445;51.270;9.434;2023-12-20T07:29:26;5.20;80.50
16663;DHT22;8445;51.270;9.434;2023-12-20T07:31:53;5.20;80.50
16663;DHT22;8445;51.270;9.434;2023-12-20T07:34:20;5.20;80.60
16663;DHT22;8445;51.270;9.434;2023-12-20T07:36:46;5.20;80.50
16663;DHT22;8445;51.270;9.434;2023-12-20T07:39:14;5.30;80.50
16663;DHT22;8445;51.270;9.434;2023-12-20T07:41:40;5.20;80.50
16663;DHT22;8445;51.270;9.434;2023-12-20T07:44:06;5.30;80.50
16663;DHT22;8445;51.270;9.434;2023-12-20T07:46:33;5.20;80.50
16663;DHT22;8445;51.270;9.434;2023-12-20T07:48:59;5.20;80.70
16663;DHT22;8445;51.270;9.434;2023-12-20T07:51:24;5.30;80.60
16663;DHT22;8445;51.270;9.434;2023-12-20T07:53:51;5.30;80.50
16663;DHT22;8445;51.270;9.434;2023-12-20T07:56:18;5.30;80.40
16663;DHT22;8445;51.270;9.434;2023-12-20T07:58:45;5.30;80.50
16663;DHT22;8445;51.270;9.434;2023-12-20T08:01:15;5.30;80.40
16663;DHT22;8445;51.270;9.434;2023-12-20T08:03:41;5.30;80.40
16663;DHT22;8445;51.270;9.434;2023-12-20T08:06:07;5.30;80.40
16663;DHT22;8445;51.270;9.434;2023-12-20T08:08:33;5.30;80.30
16663;DHT22;8445;51.270;9.434;2023-12-20T08:10:59;5.30;80.10
16663;DHT22;8445;51.270;9.434;2023-12-20T08:13:26;5.30;80.00
16663;DHT22;8445;51.270;9.434;2023-12-20T08:15:53;5.30;80.10
16663;DHT22;8445;51.270;9.434;2023-12-20T08:18:19;5.30;80.30
16663;DHT22;8445;51.270;9.434;2023-12-20T08:20:45;5.30;80.30
16663;DHT22;8445;51.270;9.434;2023-12-20T08:23:12;5.30;80.40
16663;DHT22;8445;51.270;9.434;2023-12-20T08:25:38;5.40;80.40
16663;DHT22;8445;51.270;9.434;2023-12-20T08:28:04;5.50;80.50
16663;DHT22;8445;51.270;9.434;2023-12-20T08:30:30;5.50;80.50
16663;DHT22;8445;51.270;9.434;2023-12-20T08:32:57;5.50;80.40
16663;DHT22;8445;51.270;9.434;2023-12-20T08:35:24;5.50;80.40
16663;DHT22;8445;51.270;9.434;2023-12-20T08:37:50;5.60;80.50
16663;DHT22;8445;51.270;9.434;2023-12-20T08:40:16;5.70;80.50
16663;DHT22;8445;51.270;9.434;2023-12-20T08:42:42;5.70;80.50
16663;DHT22;8445;51.270;9.434;2023-12-20T08:45:08;5.80;80.40
16663;DHT22;8445;51.270;9.434;2023-12-20T08:47:34;5.80;80.30
16663;DHT22;8445;51.270;9.434;2023-12-20T08:50:00;5.90;80.30
16663;DHT22;8445;51.270;9.434;2023-12-20T08:52:27;6.00;80.30
16663;DHT22;8445;51.270;9.434;2023-12-20T08:54:53;6.00;80.30
16663;DHT22;8445;51.270;9.434;2023-12-20T08:57:22;6.20;80.10
16663;DHT22;8445;51.270;9.434;2023-12-20T08:59:51;6.20;80.00
16663;DHT22;8445;51.270;9.434;2023-12-20T09:02:17;6.30;79.80
16663;DHT22;8445;51.270;9.434;2023-12-20T09:04:43;6.30;79.80
16663;DHT22;8445;51.270;9.434;2023-12-20T09:07:25;6.40;79.70
16663;DHT22;8445;51.270;9.434;2023-12-20T09:09:52;6.40;79.80
16663;DHT22;8445;51.270;9.434;2023-12-20T09:12:19;6.50;79.50
16663;DHT22;8445;51.270;9.434;2023-12-20T09:14:50;6.50;79.30
16663;DHT22;8445;51.270;9.434;2023-12-20T09:17:17;6.50;79.20
16663;DHT22;8445;51.270;9.434;2023-12-20T09:19:44;6.50;79.30
16663;DHT22;8445;51.270;9.434;2023-12-20T09:22:11;6.50;79.00
16663;DHT22;8445;51.270;9.434;2023-12-20T09:24:37;6.50;79.00
16663;DHT22;8445;51.270;9.434;2023-12-20T09:27:06;6.60;78.70
16663;DHT22;8445;51.270;9.434;2023-12-20T09:29:32;6.60;78.40
16663;DHT22;8445;51.270;9.434;2023-12-20T09:31:58;6.60;77.90
16663;DHT22;8445;51.270;9.434;2023-12-20T09:34:24;6.70;77.90
16663;DHT22;8445;51.270;9.434;2023-12-20T09:36:51;6.80;78.30
16663;DHT22;8445;51.270;9.434;2023-12-20T09:39:18;6.90;78.60
16663;DHT22;8445;51.270;9.434;2023-12-20T09:42:01;6.90;78.50
16663;DHT22;8445;51.270;9.434;2023-12-20T09:44:29;7.00;78.40
16663;DHT22;8445;51.270;9.434;2023-12-20T09:46:56;7.10;78.30
16663;DHT22;8445;51.270;9.434;2023-12-20T09:49:22;7.20;78.00
16663;DHT22;8445;51.270;9.434;2023-12-20T09:51:53;7.20;77.10
16663;DHT22;8445;51.270;9.434;2023-12-20T09:54:21;7.20;76.80
16663;DHT22;8445;51.270;9.434;2023-12-20T09:56:47;7.30;77.00
16663;DHT22;8445;51.270;9.434;2023-12-20T09:59:14;7.40;76.30
16663;DHT22;8445;51.270;9.434;2023-12-20T10:01:41;7.40;76.40
16663;DHT22;8445;51.270;9.434;2023-12-20T10:04:09;7.40;75.90
16663;DHT22;8445;51.270;9.434;2023-12-20T10:06:46;7.40;75.70
16663;DHT22;8445;51.270;9.434;2023-12-20T10:09:13;7.50;75.30
16663;DHT22;8445;51.270;9.434;2023-12-20T10:11:40;7.50;75.50
16663;DHT22;8445;51.270;9.434;2023-12-20T10:14:07;7.50;75.20
16663;DHT22;8445;51.270;9.434;2023-12-20T10:16:33;7.50;75.20
16663;DHT22;8445;51.270;9.434;2023-12-20T10:19:00;7.50;75.10
16663;DHT22;8445;51.270;9.434;2023-12-20T10:21:27;7.50;75.30
16663;DHT22;8445;51.270;9.434;2023-12-20T10:23:57;7.50;75.70
16663;DHT22;8445;51.270;9.434;2023-12-20T10:26:26;7.50;75.40
16663;DHT22;8445;51.270;9.434;2023-12-20T10:29:01;7.50;75.10
16663;DHT22;8445;51.270;9.434;2023-12-20T10:31:33;7.50;75.10
16663;DHT22;8445;51.270;9.434;2023-12-20T10:34:01;7.60;74.90
16663;DHT22;8445;51.270;9.434;2023-12-20T10:36:32;7.60;75.10
16663;DHT22;8445;51.270;9.434;2023-12-20T10:38:59;7.70;74.80
16663;DHT22;8445;51.270;9.434;2023-12-20T10:41:31;7.80;74.70
16663;DHT22;8445;51.270;9.434;2023-12-20T10:44:03;7.90;75.00
16663;DHT22;8445;51.270;9.434;2023-12-20T10:46:33;8.00;74.30
16663;DHT22;8445;51.270;9.434;2023-12-20T10:49:02;8.00;74.10
16663;DHT22;8445;51.270;9.434;2023-12-20T10:51:31;8.00;73.50
16663;DHT22;8445;51.270;9.434;2023-12-20T10:53:59;8.00;73.60
16663;DHT22;8445;51.270;9.434;2023-12-20T10:56:27;8.00;72.90
16663;DHT22;8445;51.270;9.434;2023-12-20T10:59:00;8.00;72.80
16663;DHT22;8445;51.270;9.434;2023-12-20T11:01:30;7.90;73.30
16663;DHT22;8445;51.270;9.434;2023-12-20T11:03:57;7.80;73.40
16663;DHT22;8445;51.270;9.434;2023-12-20T11:06:45;7.80;73.80
16663;DHT22;8445;51.270;9.434;2023-12-20T11:09:27;7.80;73.90
16663;DHT22;8445;51.270;9.434;2023-12-20T11:12:16;7.80;74.10
16663;DHT22;8445;51.270;9.434;2023-12-20T11:14:53;7.80;74.30
16663;DHT22;8445;51.270;9.434;2023-12-20T11:17:23;7.70;74.20
16663;DHT22;8445;51.270;9.434;2023-12-20T11:22:25;7.70;74.70
16663;DHT22;8445;51.270;9.434;2023-12-20T11:25:08;7.80;74.50
16663;DHT22;8445;51.270;9.434;2023-12-20T11:27:37;7.80;74.20
16663;DHT22;8445;51.270;9.434;2023-12-20T11:30:08;7.90;74.20
16663;DHT22;8445;51.270;9.434;2023-12-20T11:32:36;7.90;74.50
16663;DHT22;8445;51.270;9.434;2023-12-20T11:37:36;8.00;74.40
16663;DHT22;8445;51.270;9.434;2023-12-20T11:40:07;8.00;74.60
16663;DHT22;8445;51.270;9.434;2023-12-20T11:42:43;8.00;74.60
16663;DHT22;8445;51.270;9.434;2023-12-20T11:45:17;8.00;74.30
16663;DHT22;8445;51.270;9.434;2023-12-20T11:47:49;7.90;74.20
16663;DHT22;8445;51.270;9.434;2023-12-20T11:50:17;7.80;74.10
16663;DHT22;8445;51.270;9.434;2023-12-20T11:52:43;7.70;74.00
16663;DHT22;8445;51.270;9.434;2023-12-20T11:55:09;7.60;74.10
16663;DHT22;8445;51.270;9.434;2023-12-20T11:57:36;7.50;74.20
16663;DHT22;8445;51.270;9.434;2023-12-20T12:00:03;7.50;74.30
16663;DHT22;8445;51.270;9.434;2023-12-20T12:02:37;7.40;74.50
16663;DHT22;8445;51.270;9.434;2023-12-20T12:05:04;7.40;74.70
16663;DHT22;8445;51.270;9.434;2023-12-20T12:07:34;7.30;74.80
16663;DHT22;8445;51.270;9.434;2023-12-20T12:10:01;7.30;75.00
16663;DHT22;8445;51.270;9.434;2023-12-20T12:12:29;7.30;75.20
16663;DHT22;8445;51.270;9.434;2023-12-20T12:14:55;7.20;75.20
16663;DHT22;8445;51.270;9.434;2023-12-20T12:17:23;7.20;75.20
16663;DHT22;8445;51.270;9.434;2023-12-20T12:19:49;7.20;75.20
16663;DHT22;8445;51.270;9.434;2023-12-20T12:22:15;7.20;75.20
16663;DHT22;8445;51.270;9.434;2023-12-20T12:24:43;7.10;75.40
16663;DHT22;8445;51.270;9.434;2023-12-20T12:27:12;7.00;75.40
16663;DHT22;8445;51.270;9.434;2023-12-20T12:29:38;7.00;75.60
16663;DHT22;8445;51.270;9.434;2023-12-20T12:32:08;7.00;75.70
16663;DHT22;8445;51.270;9.434;2023-12-20T12:34:37;6.90;75.90
16663;DHT22;8445;51.270;9.434;2023-12-20T12:37:06;6.80;76.20
16663;DHT22;8445;51.270;9.434;2023-12-20T12:39:32;6.80;76.40
16663;DHT22;8445;51.270;9.434;2023-12-20T12:41:58;6.70;76.60
16663;DHT22;8445;51.270;9.434;2023-12-20T12:44:24;6.70;76.90
16663;DHT22;8445;51.270;9.434;2023-12-20T12:46:50;6.70;77.20
16663;DHT22;8445;51.270;9.434;2023-12-20T12:49:22;6.70;77.40
16663;DHT22;8445;51.270;9.434;2023-12-20T12:51:48;6.70;77.60
16663;DHT22;8445;51.270;9.434;2023-12-20T12:54:13;6.60;77.80
16663;DHT22;8445;51.270;9.434;2023-12-20T12:56:42;6.60;78.00
16663;DHT22;8445;51.270;9.434;2023-12-20T12:59:08;6.50;78.20
16663;DHT22;8445;51.270;9.434;2023-12-20T13:01:34;6.50;78.20
16663;DHT22;8445;51.270;9.434;2023-12-20T13:04:00;6.50;78.30
16663;DHT22;8445;51.270;9.434;2023-12-20T13:06:29;6.50;78.60
16663;DHT22;8445;51.270;9.434;2023-12-20T13:08:55;6.40;78.70
16663;DHT22;8445;51.270;9.434;2023-12-20T13:11:21;6.40;79.00
16663;DHT22;8445;51.270;9.434;2023-12-20T13:13:47;6.40;78.90
16663;DHT22;8445;51.270;9.434;2023-12-20T13:16:13;6.30;79.00
16663;DHT22;8445;51.270;9.434;2023-12-20T13:18:39;6.30;79.00
16663;DHT22;8445;51.270;9.434;2023-12-20T13:21:08;6.30;79.20
16663;DHT22;8445;51.270;9.434;2023-12-20T13:23:35;6.30;79.20
16663;DHT22;8445;51.270;9.434;2023-12-20T13:26:07;6.20;79.20
16663;DHT22;8445;51.270;9.434;2023-12-20T13:28:33;6.20;79.30
16663;DHT22;8445;51.270;9.434;2023-12-20T13:30:59;6.20;79.70
16663;DHT22;8445;51.270;9.434;2023-12-20T13:33:25;6.20;79.70
16663;DHT22;8445;51.270;9.434;2023-12-20T13:35:51;6.20;79.70
16663;DHT22;8445;51.270;9.434;2023-12-20T13:38:17;6.20;79.80
16663;DHT22;8445;51.270;9.434;2023-12-20T13:40:43;6.20;79.80
16663;DHT22;8445;51.270;9.434;2023-12-20T13:43:09;6.20;79.80
16663;DHT22;8445;51.270;9.434;2023-12-20T13:45:37;6.20;80.00
16663;DHT22;8445;51.270;9.434;2023-12-20T13:48:03;6.20;80.00
16663;DHT22;8445;51.270;9.434;2023-12-20T13:50:30;6.20;80.00
16663;DHT22;8445;51.270;9.434;2023-12-20T13:52:55;6.20;80.20
16663;DHT22;8445;51.270;9.434;2023-12-20T13:55:21;6.20;80.20
16663;DHT22;8445;51.270;9.434;2023-12-20T13:57:51;6.20;80.20
16663;DHT22;8445;51.270;9.434;2023-12-20T14:00:17;6.20;80.20
16663;DHT22;8445;51.270;9.434;2023-12-20T14:02:43;6.20;80.20
16663;DHT22;8445;51.270;9.434;2023-12-20T14:05:09;6.20;80.10
16663;DHT22;8445;51.270;9.434;2023-12-20T14:07:36;6.20;80.10
16663;DHT22;8445;51.270;9.434;2023-12-20T14:10:03;6.20;80.30
16663;DHT22;8445;51.270;9.434;2023-12-20T14:12:29;6.20;80.50
16663;DHT22;8445;51.270;9.434;2023-12-20T14:14:55;6.20;80.60
16663;DHT22;8445;51.270;9.434;2023-12-20T14:17:22;6.20;80.50
16663;DHT22;8445;51.270;9.434;2023-12-20T14:19:48;6.30;80.50
16663;DHT22;8445;51.270;9.434;2023-12-20T14:22:14;6.30;80.50
16663;DHT22;8445;51.270;9.434;2023-12-20T14:24:42;6.30;80.50
16663;DHT22;8445;51.270;9.434;2023-12-20T14:27:09;6.30;80.40
16663;DHT22;8445;51.270;9.434;2023-12-20T14:29:36;6.30;80.40
16663;DHT22;8445;51.270;9.434;2023-12-20T14:32:03;6.30;80.40
16663;DHT22;8445;51.270;9.434;2023-12-20T14:34:30;6.30;80.40
16663;DHT22;8445;51.270;9.434;2023-12-20T14:36:56;6.30;80.50
16663;DHT22;8445;51.270;9.434;2023-12-20T14:39:22;6.30;80.40
16663;DHT22;8445;51.270;9.434;2023-12-20T14:41:48;6.30;80.30
16663;DHT22;8445;51.270;9.434;2023-12-20T14:44:14;6.30;80.30
16663;DHT22;8445;51.270;9.434;2023-12-20T14:46:40;6.30;80.20
16663;DHT22;8445;51.270;9.434;2023-12-20T14:49:06;6.30;80.20
16663;DHT22;8445;51.270;9.434;2023-12-20T14:51:32;6.30;80.10
16663;DHT22;8445;51.270;9.434;2023-12-20T14:53:58;6.30;80.00
16663;DHT22;8445;51.270;9.434;2023-12-20T14:56:25;6.30;79.90
16663;DHT22;8445;51.270;9.434;2023-12-20T14:58:52;6.30;79.70
16663;DHT22;8445;51.270;9.434;2023-12-20T15:01:18;6.30;79.80
16663;DHT22;8445;51.270;9.434;2023-12-20T15:03:47;6.20;79.80
16663;DHT22;8445;51.270;9.434;2023-12-20T15:06:13;6.20;79.90
16663;DHT22;8445;51.270;9.434;2023-12-20T15:08:39;6.10;79.80
16663;DHT22;8445;51.270;9.434;2023-12-20T15:11:05;6.10;79.70
16663;DHT22;8445;51.270;9.434;2023-12-20T15:13:31;6.10;79.90
16663;DHT22;8445;51.270;9.434;2023-12-20T15:15:59;6.00;79.90
16663;DHT22;8445;51.270;9.434;2023-12-20T15:18:25;6.00;79.90
16663;DHT22;8445;51.270;9.434;2023-12-20T15:20:51;6.00;80.00
16663;DHT22;8445;51.270;9.434;2023-12-20T15:23:17;5.90;80.00
16663;DHT22;8445;51.270;9.434;2023-12-20T15:25:46;5.90;80.10
16663;DHT22;8445;51.270;9.434;2023-12-20T15:28:11;5.90;80.40
16663;DHT22;8445;51.270;9.434;2023-12-20T15:30:39;5.90;80.40
16663;DHT22;8445;51.270;9.434;2023-12-20T15:33:06;5.90;80.40
16663;DHT22;8445;51.270;9.434;2023-12-20T15:35:32;5.80;80.30
16663;DHT22;8445;51.270;9.434;2023-12-20T15:37:58;5.90;80.40
16663;DHT22;8445;51.270;9.434;2023-12-20T15:40:24;5.90;80.40
16663;DHT22;8445;51.270;9.434;2023-12-20T15:42:50;5.90;80.40
16663;DHT22;8445;51.270;9.434;2023-12-20T15:45:16;5.90;80.40
16663;DHT22;8445;51.270;9.434;2023-12-20T15:47:41;5.90;80.40
16663;DHT22;8445;51.270;9.434;2023-12-20T15:50:07;6.00;80.40
16663;DHT22;8445;51.270;9.434;2023-12-20T15:52:33;6.00;80.40
16663;DHT22;8445;51.270;9.434;2023-12-20T15:55:00;6.00;80.30
16663;DHT22;8445;51.270;9.434;2023-12-20T15:57:26;6.00;80.40
16663;DHT22;8445;51.270;9.434;2023-12-20T15:59:52;6.00;80.40
16663;DHT22;8445;51.270;9.434;2023-12-20T16:02:18;6.00;80.50
16663;DHT22;8445;51.270;9.434;2023-12-20T16:04:45;6.00;80.50
16663;DHT22;8445;51.270;9.434;2023-12-20T16:07:11;6.00;80.70